createdAt,value
2022-09-27T00:01:08.843Z,12.52
2022-09-27T00:03:41.647Z,12.95
2022-09-27T00:06:16.308Z,14.40
2022-09-27T00:08:45.107Z,12.38
2022-09-27T00:11:18.982Z,11.55
2022-09-27T00:13:47.186Z,13.70
2022-09-27T00:16:15.755Z,14.10
2022-09-27T00:18:44.107Z,17.33
2022-09-27T00:21:15.493Z,11.80
2022-09-27T00:23:47.040Z,14.18
2022-09-27T00:26:15.460Z,10.80
2022-09-27T00:28:43.966Z,17.63
2022-09-27T00:31:21.206Z,14.68
2022-09-27T00:33:50.465Z,13.57
2022-09-27T00:36:22.612Z,15.50
2022-09-27T00:38:51.143Z,14.32
2022-09-27T00:41:22.240Z,12.98
2022-09-27T00:43:52.703Z,12.57
2022-09-27T00:46:28.158Z,11.00
2022-09-27T00:49:06.904Z,15.15
2022-09-27T00:51:40.484Z,19.48
2022-09-27T00:54:13.223Z,14.98
2022-09-27T00:56:43.220Z,12.30
2022-09-27T00:59:18.365Z,13.52
2022-09-27T01:01:47.385Z,13.98
2022-09-27T01:04:19.049Z,10.77
2022-09-27T01:06:49.075Z,14.77
2022-09-27T01:09:17.763Z,10.65
2022-09-27T01:11:51.599Z,15.52
2022-09-27T01:14:42.666Z,13.13
2022-09-27T01:17:22.406Z,14.48
2022-09-27T01:20:31.459Z,15.90
2022-09-27T01:23:19.823Z,16.38
2022-09-27T01:25:59.014Z,13.77
2022-09-27T01:28:42.601Z,17.05
2022-09-27T01:31:19.228Z,12.65
2022-09-27T01:33:55.078Z,11.88
2022-09-27T01:36:32.139Z,12.00
2022-09-27T01:39:14.179Z,11.27
2022-09-27T01:41:52.860Z,13.63
2022-09-27T01:44:29.048Z,13.65
2022-09-27T01:47:04.880Z,11.52
2022-09-27T01:49:40.591Z,14.98
2022-09-27T01:52:14.330Z,9.82
2022-09-27T01:54:46.680Z,16.55
2022-09-27T01:57:20.928Z,13.05
2022-09-27T01:59:54.686Z,11.40
2022-09-27T02:02:31.298Z,11.25
2022-09-27T02:05:03.396Z,14.27
2022-09-27T02:07:39.062Z,14.15
2022-09-27T02:10:12.438Z,13.27
2022-09-27T02:12:51.627Z,17.50
2022-09-27T02:15:20.660Z,13.80
2022-09-27T02:17:56.434Z,12.55
2022-09-27T02:20:31.694Z,13.57
2022-09-27T02:23:12.042Z,12.98
2022-09-27T02:25:45.786Z,11.48
2022-09-27T02:28:26.121Z,12.02
2022-09-27T02:31:31.826Z,13.75
2022-09-27T02:34:05.259Z,12.23
2022-09-27T02:36:33.645Z,15.65
2022-09-27T02:39:02.366Z,11.77
2022-09-27T02:41:30.611Z,11.55
2022-09-27T02:44:04.132Z,9.80
2022-09-27T02:47:01.168Z,12.65
2022-09-27T02:49:48.548Z,16.08
2022-09-27T02:52:29.589Z,15.32
2022-09-27T02:55:08.295Z,11.52
2022-09-27T02:57:46.874Z,10.27
2022-09-27T03:00:18.744Z,11.98
2022-09-27T03:02:56.863Z,11.93
2022-09-27T03:05:30.347Z,12.48
2022-09-27T03:07:59.159Z,12.70
2022-09-27T03:10:29.383Z,17.17
2022-09-27T03:12:58.798Z,16.27
2022-09-27T03:15:27.318Z,14.77
2022-09-27T03:17:55.572Z,17.13
2022-09-27T03:20:23.882Z,12.80
2022-09-27T03:22:53.716Z,15.60
2022-09-27T03:25:21.912Z,12.75
2022-09-27T03:27:50.085Z,14.43
2022-09-27T03:30:18.692Z,14.77
2022-09-27T03:32:47.339Z,12.93
2022-09-27T03:35:15.946Z,13.57
2022-09-27T03:37:44.995Z,15.10
2022-09-27T03:40:14.731Z,15.82
2022-09-27T03:42:47.491Z,16.63
2022-09-27T03:45:18.358Z,14.13
2022-09-27T03:47:46.629Z,14.47
2022-09-27T03:50:16.044Z,13.40
2022-09-27T03:52:45.061Z,15.63
2022-09-27T03:55:15.157Z,16.75
2022-09-27T03:57:46.276Z,12.18
2022-09-27T04:00:17.399Z,18.77
2022-09-27T04:05:13.993Z,12.43
2022-09-27T04:07:47.796Z,19.60
2022-09-27T04:10:17.483Z,12.30
2022-09-27T04:12:45.996Z,19.25
2022-09-27T04:15:14.395Z,18.70
2022-09-27T04:17:42.921Z,20.67
2022-09-27T04:20:12.118Z,20.63
2022-09-27T04:22:44.085Z,19.52
2022-09-27T04:25:13.172Z,18.77
2022-09-27T04:27:46.655Z,19.80
2022-09-27T04:30:15.767Z,16.75
2022-09-27T04:32:44.791Z,15.05
2022-09-27T04:35:31.493Z,18.10
2022-09-27T04:38:00.204Z,19.60
2022-09-27T04:40:28.519Z,17.40
2022-09-27T04:42:58.218Z,20.17
2022-09-27T04:45:26.896Z,18.05
2022-09-27T04:47:55.282Z,15.73
2022-09-27T04:50:23.639Z,14.30
2022-09-27T04:52:53.655Z,15.73
2022-09-27T04:55:22.767Z,20.50
2022-09-27T04:57:51.510Z,14.45
2022-09-27T05:00:21.567Z,16.98
2022-09-27T05:02:49.924Z,16.33
2022-09-27T05:05:18.365Z,15.05
2022-09-27T05:07:47.025Z,14.80
2022-09-27T05:10:15.261Z,15.57
2022-09-27T05:12:43.403Z,20.70
2022-09-27T05:15:12.520Z,20.42
2022-09-27T05:17:42.406Z,26.23
2022-09-27T05:20:11.496Z,16.85
2022-09-27T05:22:41.653Z,19.05
2022-09-27T05:25:10.659Z,17.55
2022-09-27T05:27:38.972Z,21.17
2022-09-27T05:30:09.269Z,20.05
2022-09-27T05:32:37.843Z,20.02
2022-09-27T05:35:08.329Z,18.53
2022-09-27T05:37:40.819Z,18.05
2022-09-27T05:40:29.203Z,19.13
2022-09-27T05:45:27.232Z,22.05
2022-09-27T05:47:57.299Z,28.02
2022-09-27T05:50:28.192Z,28.05
2022-09-27T05:52:56.870Z,44.08
2022-09-27T05:55:25.391Z,117.05
2022-09-27T05:57:58.822Z,42.00
2022-09-27T06:00:28.062Z,81.68
2022-09-27T06:05:28.981Z,96.78
2022-09-27T06:08:01.350Z,129.75
2022-09-27T06:10:31.194Z,25.48
2022-09-27T06:13:03.614Z,59.47
2022-09-27T06:15:32.974Z,33.95
2022-09-27T06:20:34.831Z,44.95
2022-09-27T06:23:09.270Z,20.63
2022-09-27T06:25:51.595Z,29.08
2022-09-27T06:28:20.812Z,37.85
2022-09-27T06:30:51.131Z,17.65
2022-09-27T06:33:21.636Z,18.10
2022-09-27T06:35:51.809Z,23.02
2022-09-27T06:38:21.359Z,23.80
2022-09-27T06:40:50.177Z,23.00
2022-09-27T06:43:21.137Z,31.80
2022-09-27T06:45:50.602Z,59.53
2022-09-27T06:50:49.232Z,54.30
2022-09-27T06:53:19.360Z,43.28
2022-09-27T06:55:48.170Z,38.03
2022-09-27T06:58:36.012Z,44.63
2022-09-27T07:01:04.999Z,47.55
2022-09-27T07:03:40.773Z,41.78
2022-09-27T07:06:17.583Z,36.97
2022-09-27T07:08:51.843Z,40.22
2022-09-27T07:11:22.207Z,30.13
2022-09-27T07:13:52.141Z,43.50
2022-09-27T07:16:21.138Z,29.40
2022-09-27T07:18:51.341Z,39.35
2022-09-27T07:21:19.986Z,38.65
2022-09-27T07:23:50.696Z,37.90
2022-09-27T07:26:19.266Z,40.40
2022-09-27T07:28:47.678Z,52.30
2022-09-27T07:31:17.293Z,48.38
2022-09-27T07:33:45.577Z,43.03
2022-09-27T07:36:15.166Z,43.97
2022-09-27T07:38:44.131Z,44.90
2022-09-27T07:41:15.367Z,45.80
2022-09-27T07:43:44.176Z,44.45
2022-09-27T07:46:13.703Z,46.63
2022-09-27T07:51:11.991Z,42.33
2022-09-27T07:53:44.212Z,44.05
2022-09-27T07:56:13.872Z,45.83
2022-09-27T07:58:43.195Z,41.58
2022-09-27T08:01:11.463Z,43.72
2022-09-27T08:03:40.955Z,41.08
2022-09-27T08:06:09.433Z,45.13
2022-09-27T08:08:38.064Z,42.65
2022-09-27T08:11:15.425Z,42.15
2022-09-27T08:13:43.647Z,45.63
2022-09-27T08:16:12.417Z,46.67
2022-09-27T08:18:40.806Z,41.60
2022-09-27T08:21:09.072Z,46.47
2022-09-27T08:23:38.360Z,41.20
2022-09-27T08:26:07.519Z,41.55
2022-09-27T08:28:37.079Z,42.22
2022-09-27T08:31:06.129Z,40.58
2022-09-27T08:33:39.070Z,39.25
2022-09-27T08:36:13.197Z,40.53
2022-09-27T08:38:41.427Z,40.13
2022-09-27T08:41:13.771Z,43.13
2022-09-27T08:43:50.772Z,37.85
2022-09-27T08:46:28.769Z,40.35
2022-09-27T08:49:07.016Z,39.17
2022-09-27T08:51:36.788Z,40.65
2022-09-27T08:54:09.446Z,33.70
2022-09-27T08:56:47.631Z,33.83
2022-09-27T08:59:29.930Z,29.98
2022-09-27T09:01:58.997Z,30.15
2022-09-27T09:04:37.292Z,27.08
2022-09-27T09:07:17.402Z,27.55
2022-09-27T09:09:54.325Z,28.40
2022-09-27T09:12:50.307Z,26.58
2022-09-27T09:15:33.324Z,27.80
2022-09-27T09:18:24.297Z,26.25
2022-09-27T09:20:59.927Z,25.52
2022-09-27T09:23:59.624Z,26.27
2022-09-27T09:26:36.285Z,26.10
2022-09-27T09:29:15.704Z,24.33
2022-09-27T09:31:52.513Z,25.63
2022-09-27T09:34:25.360Z,23.35
2022-09-27T09:36:58.008Z,26.02
2022-09-27T09:39:30.194Z,24.75
2022-09-27T09:42:08.225Z,23.60
2022-09-27T09:44:45.334Z,24.40
2022-09-27T09:47:29.623Z,22.65
2022-09-27T09:50:01.872Z,23.65
2022-09-27T09:52:43.327Z,24.52
2022-09-27T09:55:21.554Z,25.70
2022-09-27T09:58:08.407Z,26.63
2022-09-27T10:00:37.104Z,24.17
2022-09-27T10:03:07.390Z,22.77
2022-09-27T10:05:36.302Z,21.52
2022-09-27T10:08:14.175Z,20.77
2022-09-27T10:10:42.719Z,18.13
2022-09-27T10:13:16.747Z,19.85
2022-09-27T10:15:55.243Z,18.05
2022-09-27T10:18:26.591Z,18.15
2022-09-27T10:21:00.223Z,18.30
2022-09-27T10:23:29.274Z,18.27
2022-09-27T10:26:01.638Z,19.10
2022-09-27T10:28:37.531Z,18.38
2022-09-27T10:31:08.818Z,17.80
2022-09-27T10:33:40.758Z,19.50
2022-09-27T10:36:25.666Z,15.57
2022-09-27T10:38:55.627Z,19.13
2022-09-27T10:41:28.480Z,18.95
2022-09-27T10:43:56.929Z,16.25
2022-09-27T10:46:29.965Z,15.48
2022-09-27T10:49:20.470Z,17.25
2022-09-27T10:51:53.715Z,17.10
2022-09-27T10:54:24.818Z,14.55
2022-09-27T10:56:59.245Z,17.98
2022-09-27T10:59:31.695Z,14.23
2022-09-27T11:02:00.608Z,15.25
2022-09-27T11:04:34.125Z,17.90
2022-09-27T11:07:15.711Z,17.40
2022-09-27T11:09:50.336Z,17.67
2022-09-27T11:12:22.169Z,14.25
2022-09-27T11:14:57.117Z,13.23
2022-09-27T11:17:35.975Z,14.80
2022-09-27T11:20:20.322Z,12.82
2022-09-27T11:23:20.215Z,13.75
2022-09-27T11:26:01.132Z,17.30
2022-09-27T11:28:42.076Z,14.00
2022-09-27T11:31:20.022Z,14.38
2022-09-27T11:34:13.069Z,16.40
2022-09-27T11:36:58.027Z,11.05
2022-09-27T11:39:35.506Z,13.25
2022-09-27T11:42:23.797Z,11.93
2022-09-27T11:45:34.276Z,10.15
2022-09-27T11:48:08.123Z,10.52
2022-09-27T11:50:53.842Z,13.07
2022-09-27T11:53:37.420Z,11.82
2022-09-27T11:56:16.037Z,15.77
2022-09-27T11:58:58.306Z,13.50
2022-09-27T12:01:36.858Z,13.48
2022-09-27T12:04:51.559Z,20.17
2022-09-27T12:07:28.611Z,13.30
2022-09-27T12:10:04.707Z,15.52
2022-09-27T12:12:38.033Z,15.32
2022-09-27T12:15:14.423Z,16.23
2022-09-27T12:17:47.165Z,13.70
2022-09-27T12:20:22.694Z,15.45
2022-09-27T12:22:59.579Z,17.23
2022-09-27T12:25:33.362Z,14.07
2022-09-27T12:28:08.633Z,15.18
2022-09-27T12:30:41.294Z,18.30
2022-09-27T12:33:19.326Z,15.98
2022-09-27T12:35:53.386Z,17.80
2022-09-27T12:38:28.890Z,14.13
2022-09-27T12:41:01.236Z,15.93
2022-09-27T12:43:32.510Z,15.45
2022-09-27T12:46:14.415Z,17.13
2022-09-27T12:48:50.041Z,17.70
2022-09-27T12:51:21.856Z,19.35
2022-09-27T12:54:09.041Z,18.95
2022-09-27T12:56:52.913Z,16.13
2022-09-27T12:59:40.692Z,18.25
2022-09-27T13:02:29.259Z,16.42
2022-09-27T13:05:11.309Z,14.88
2022-09-27T13:07:52.522Z,15.10
2022-09-27T13:10:47.626Z,16.40
2022-09-27T13:13:36.692Z,15.25
2022-09-27T13:16:06.282Z,17.08
2022-09-27T13:18:56.289Z,16.67
2022-09-27T13:22:01.451Z,14.93
2022-09-27T13:24:42.202Z,15.48
2022-09-27T13:27:41.999Z,14.10
2022-09-27T13:30:49.680Z,16.70
2022-09-27T13:33:51.470Z,16.23
2022-09-27T13:36:32.277Z,17.27
2022-09-27T13:39:07.794Z,17.65
2022-09-27T13:41:56.121Z,18.40
2022-09-27T13:44:32.599Z,15.55
2022-09-27T13:47:05.589Z,14.60
2022-09-27T13:49:39.636Z,16.40
2022-09-27T13:52:21.313Z,18.60
2022-09-27T13:54:54.732Z,18.13
2022-09-27T13:57:53.223Z,16.77
2022-09-27T14:00:24.817Z,14.98
2022-09-27T14:03:01.164Z,18.00
2022-09-27T14:05:41.623Z,14.13
2022-09-27T14:08:23.486Z,15.52
2022-09-27T14:10:57.042Z,14.68
2022-09-27T14:13:29.065Z,16.23
2022-09-27T14:16:00.211Z,16.13
2022-09-27T14:18:31.559Z,16.13
2022-09-27T14:21:16.615Z,15.32
2022-09-27T14:23:45.101Z,14.48
2022-09-27T14:26:29.412Z,17.90
2022-09-27T14:28:57.994Z,16.13
2022-09-27T14:31:27.019Z,15.75
2022-09-27T14:34:07.517Z,16.42
2022-09-27T14:36:56.674Z,16.38
2022-09-27T14:39:33.539Z,14.68
2022-09-27T14:45:22.462Z,13.68
2022-09-27T14:47:52.739Z,16.48
2022-09-27T14:50:24.605Z,15.77
2022-09-27T14:52:57.708Z,16.17
2022-09-27T14:55:29.313Z,16.73
2022-09-27T14:58:01.289Z,15.90
2022-09-27T15:00:36.667Z,18.08
2022-09-27T15:03:09.927Z,16.48
2022-09-27T15:05:43.415Z,17.20
2022-09-27T15:08:15.455Z,17.30
2022-09-27T15:10:45.863Z,17.92
2022-09-27T15:17:10.688Z,18.45
2022-09-27T15:19:39.732Z,18.55
2022-09-27T15:22:25.770Z,17.38
2022-09-27T15:25:14.959Z,17.00
2022-09-27T15:27:52.407Z,18.10
2022-09-27T15:30:29.620Z,17.80
2022-09-27T15:33:01.765Z,20.25
2022-09-27T15:35:33.688Z,18.52
2022-09-27T15:38:26.117Z,17.98
2022-09-27T15:41:13.233Z,21.38
2022-09-27T15:43:45.610Z,19.65
2022-09-27T15:46:42.857Z,22.65
2022-09-27T15:49:35.860Z,19.30
2022-09-27T15:55:50.054Z,17.65
2022-09-27T15:58:38.291Z,20.23
2022-09-27T16:07:24.039Z,20.70
2022-09-27T16:09:59.126Z,23.08
2022-09-27T16:33:39.236Z,20.67
2022-09-27T16:36:23.028Z,22.38
2022-09-27T16:38:52.532Z,22.35
2022-09-27T16:41:23.998Z,20.00
2022-09-27T16:43:52.899Z,20.95
2022-09-27T16:49:48.439Z,21.70
2022-09-27T16:52:17.437Z,22.83
2022-09-27T16:54:46.155Z,25.02
2022-09-27T16:57:15.097Z,26.17
2022-09-27T16:59:59.023Z,22.50
2022-09-27T17:02:37.034Z,21.25
2022-09-27T17:05:08.136Z,25.42
2022-09-27T17:07:37.226Z,23.23
2022-09-27T17:10:06.601Z,25.13
2022-09-27T17:16:07.101Z,24.33
2022-09-27T17:23:10.403Z,26.30
2022-09-27T17:25:39.231Z,25.52
2022-09-27T17:28:08.029Z,27.17
2022-09-27T17:30:36.525Z,25.52
2022-09-27T17:33:05.832Z,25.73
2022-09-27T17:35:34.342Z,23.97
2022-09-27T17:38:04.565Z,25.73
2022-09-27T17:40:34.669Z,24.95
2022-09-27T17:45:52.200Z,25.23
2022-09-27T17:48:37.796Z,32.05
2022-09-27T17:51:06.398Z,28.33
2022-09-27T17:53:37.012Z,26.45
2022-09-27T17:56:05.463Z,25.15
2022-09-27T17:58:34.622Z,25.33
2022-09-27T18:03:32.397Z,27.52
2022-09-27T18:06:00.860Z,30.70
2022-09-27T18:08:32.527Z,28.50
2022-09-27T18:11:07.845Z,32.70
2022-09-27T18:13:40.828Z,32.03
2022-09-27T18:16:11.326Z,29.33
2022-09-27T18:18:41.700Z,29.10
2022-09-27T18:21:14.184Z,28.30
2022-09-27T18:23:45.010Z,30.27
2022-09-27T18:26:15.107Z,29.98
2022-09-27T18:28:44.154Z,27.50
2022-09-27T18:31:15.551Z,29.58
2022-09-27T18:33:44.818Z,31.58
2022-09-27T18:36:15.635Z,27.23
2022-09-27T18:38:44.412Z,30.55
2022-09-27T18:41:15.834Z,27.95
2022-09-27T18:43:45.889Z,30.25
2022-09-27T18:46:34.967Z,29.95
2022-09-27T18:49:05.894Z,29.20
2022-09-27T18:51:37.604Z,29.83
2022-09-27T18:54:09.614Z,29.60
2022-09-27T18:56:41.248Z,29.75
2022-09-27T18:59:11.583Z,33.45
2022-09-27T19:01:44.053Z,31.75
2022-09-27T19:04:14.810Z,31.33
2022-09-27T19:06:43.171Z,35.80
2022-09-27T19:09:12.788Z,28.85
2022-09-27T19:11:42.693Z,33.25
2022-09-27T19:14:16.300Z,28.95
2022-09-27T19:16:47.257Z,33.05
2022-09-27T19:19:16.157Z,29.27
2022-09-27T19:21:44.596Z,32.35
2022-09-27T19:24:14.271Z,31.57
2022-09-27T19:29:12.893Z,29.83
2022-09-27T19:34:11.067Z,32.20
2022-09-27T19:36:39.442Z,32.75
2022-09-27T19:39:08.141Z,31.83
2022-09-27T19:41:36.662Z,30.70
2022-09-27T19:44:06.866Z,30.00
2022-09-27T19:46:35.457Z,30.08
2022-09-27T19:49:03.761Z,30.30
2022-09-27T19:51:32.661Z,30.83
2022-09-27T19:54:01.355Z,29.27
2022-09-27T19:56:29.661Z,29.55
2022-09-27T19:58:57.834Z,29.15
2022-09-27T20:01:27.865Z,30.80
2022-09-27T20:03:56.926Z,31.92
2022-09-27T20:06:25.432Z,33.67
2022-09-27T20:08:53.736Z,29.40
2022-09-27T20:11:23.979Z,27.70
2022-09-27T20:13:54.534Z,30.73
2022-09-27T20:16:24.352Z,28.95
2022-09-27T20:18:55.807Z,30.80
2022-09-27T20:21:25.998Z,28.80
2022-09-27T20:23:56.258Z,29.67
2022-09-27T20:26:26.539Z,29.90
2022-09-27T20:28:57.120Z,29.63
2022-09-27T20:31:27.445Z,32.80
2022-09-27T20:33:57.525Z,28.17
2022-09-27T20:36:27.718Z,32.53
2022-09-27T20:39:01.923Z,29.98
2022-09-27T20:41:32.881Z,30.67
2022-09-27T20:44:04.516Z,30.05
2022-09-27T20:46:33.627Z,35.45
2022-09-27T20:49:05.951Z,29.45
2022-09-27T20:51:36.136Z,30.55
2022-09-27T20:54:05.263Z,28.73
2022-09-27T20:56:35.586Z,28.65
2022-09-27T20:59:06.198Z,31.02
2022-09-27T21:01:34.741Z,29.10
2022-09-27T21:04:06.694Z,27.97
2022-09-27T21:06:37.020Z,29.45
2022-09-27T21:09:07.253Z,25.50
2022-09-27T21:11:36.412Z,31.35
2022-09-27T21:14:05.209Z,28.27
2022-09-27T21:16:36.306Z,28.60
2022-09-27T21:19:06.354Z,28.45
2022-09-27T21:21:34.542Z,21.75
2022-09-27T21:24:03.167Z,15.18
2022-09-27T21:26:33.699Z,7.93
2022-09-27T21:29:06.618Z,6.75
2022-09-27T21:31:36.392Z,4.20
2022-09-27T21:36:37.532Z,4.63
2022-09-27T21:39:08.846Z,8.40
2022-09-27T21:41:39.090Z,2.97
2022-09-27T21:44:08.160Z,2.97
2022-09-27T21:46:39.634Z,2.30
2022-09-27T21:49:09.810Z,1.70
2022-09-27T21:51:39.789Z,1.65
2022-09-27T21:54:09.324Z,2.03
2022-09-27T21:56:40.633Z,2.22
2022-09-27T21:59:12.011Z,2.13
2022-09-27T22:01:40.798Z,3.15
2022-09-27T22:04:10.736Z,2.77
2022-09-27T22:06:40.443Z,2.33
2022-09-27T22:09:12.905Z,2.08
2022-09-27T22:11:44.024Z,2.00
2022-09-27T22:14:13.324Z,2.05
2022-09-27T22:16:41.549Z,3.30
2022-09-27T22:19:12.204Z,2.15
2022-09-27T22:21:41.621Z,3.58
2022-09-27T22:24:13.789Z,1.90
2022-09-27T22:26:46.939Z,2.08
2022-09-27T22:29:15.612Z,2.50
2022-09-27T22:31:44.077Z,2.55
2022-09-27T22:34:18.755Z,2.97
2022-09-27T22:36:47.735Z,2.67
2022-09-27T22:39:16.240Z,2.50
2022-09-27T22:41:44.543Z,2.50
2022-09-27T22:44:12.999Z,3.95
2022-09-27T22:46:41.341Z,4.68
2022-09-27T22:49:09.950Z,3.50
2022-09-27T22:51:40.007Z,3.90
2022-09-27T22:54:08.241Z,3.85
2022-09-27T22:56:36.442Z,2.90
2022-09-27T22:59:04.998Z,5.38
2022-09-27T23:01:33.231Z,2.65
2022-09-27T23:04:01.701Z,2.60
2022-09-27T23:06:30.173Z,2.08
2022-09-27T23:09:01.539Z,3.88
2022-09-27T23:11:31.502Z,1.95
2022-09-27T23:13:59.860Z,2.03
2022-09-27T23:16:28.267Z,2.53
2022-09-27T23:18:58.006Z,2.28
2022-09-27T23:21:28.864Z,2.38
2022-09-27T23:23:59.888Z,2.95
2022-09-27T23:26:29.759Z,3.85
2022-09-27T23:28:59.669Z,2.58
2022-09-27T23:31:29.858Z,2.20
2022-09-27T23:34:00.170Z,3.50
2022-09-27T23:36:29.258Z,3.33
2022-09-27T23:39:01.472Z,2.97
2022-09-27T23:41:30.243Z,5.78
2022-09-27T23:43:58.853Z,4.10
2022-09-27T23:46:27.200Z,3.15
2022-09-27T23:48:59.012Z,2.47
2022-09-27T23:51:27.456Z,3.13
2022-09-27T23:53:57.180Z,4.70
2022-09-27T23:56:27.268Z,4.30
2022-09-27T23:58:55.507Z,3.55
